sensor_id;sensor_type;location;lat;lon;timestamp;temperature;humidity
9389;DHT22;4734;52.778;6.798;2022-10-15T00:01:17;12.70;99.90
9389;DHT22;4734;52.778;6.798;2022-10-15T00:04:04;12.70;99.90
9389;DHT22;4734;52.778;6.798;2022-10-15T00:06:49;12.70;99.90
9389;DHT22;4734;52.778;6.798;2022-10-15T00:09:37;12.60;99.90
9389;DHT22;4734;52.778;6.798;2022-10-15T00:12:25;12.60;99.90
9389;DHT22;4734;52.778;6.798;2022-10-15T00:15:10;12.60;99.90
9389;DHT22;4734;52.778;6.798;2022-10-15T00:17:55;12.60;99.90
9389;DHT22;4734;52.778;6.798;2022-10-15T00:20:42;12.60;99.90
9389;DHT22;4734;52.778;6.798;2022-10-15T00:23:30;12.60;99.90
9389;DHT22;4734;52.778;6.798;2022-10-15T00:26:17;12.60;99.90
9389;DHT22;4734;52.778;6.798;2022-10-15T00:29:03;12.60;99.90
9389;DHT22;4734;52.778;6.798;2022-10-15T00:31:48;12.60;99.90
9389;DHT22;4734;52.778;6.798;2022-10-15T00:34:34;12.60;99.90
9389;DHT22;4734;52.778;6.798;2022-10-15T00:37:21;12.60;99.90
9389;DHT22;4734;52.778;6.798;2022-10-15T00:40:08;12.60;99.90
9389;DHT22;4734;52.778;6.798;2022-10-15T00:42:54;12.50;99.90
9389;DHT22;4734;52.778;6.798;2022-10-15T00:45:39;12.50;99.90
9389;DHT22;4734;52.778;6.798;2022-10-15T00:48:25;12.50;99.90
9389;DHT22;4734;52.778;6.798;2022-10-15T00:51:11;12.60;99.90
9389;DHT22;4734;52.778;6.798;2022-10-15T00:53:58;12.60;99.90
9389;DHT22;4734;52.778;6.798;2022-10-15T00:56:46;12.60;99.90
9389;DHT22;4734;52.778;6.798;2022-10-15T00:59:34;12.60;99.90
9389;DHT22;4734;52.778;6.798;2022-10-15T01:02:21;12.60;99.90
9389;DHT22;4734;52.778;6.798;2022-10-15T01:05:07;12.60;99.90
9389;DHT22;4734;52.778;6.798;2022-10-15T01:07:53;12.60;99.90
9389;DHT22;4734;52.778;6.798;2022-10-15T01:10:45;12.60;99.90
9389;DHT22;4734;52.778;6.798;2022-10-15T01:13:35;12.60;99.90
9389;DHT22;4734;52.778;6.798;2022-10-15T01:16:28;12.60;99.90
9389;DHT22;4734;52.778;6.798;2022-10-15T01:19:32;12.60;99.90
9389;DHT22;4734;52.778;6.798;2022-10-15T01:22:25;12.60;99.90
9389;DHT22;4734;52.778;6.798;2022-10-15T01:25:25;12.60;99.90
9389;DHT22;4734;52.778;6.798;2022-10-15T01:28:21;12.60;99.90
9389;DHT22;4734;52.778;6.798;2022-10-15T01:31:16;12.60;99.90
9389;DHT22;4734;52.778;6.798;2022-10-15T01:34:12;12.60;99.90
9389;DHT22;4734;52.778;6.798;2022-10-15T01:37:06;12.60;99.90
9389;DHT22;4734;52.778;6.798;2022-10-15T01:39:56;12.60;99.90
9389;DHT22;4734;52.778;6.798;2022-10-15T01:42:48;12.60;99.90
9389;DHT22;4734;52.778;6.798;2022-10-15T01:45:40;12.60;99.90
9389;DHT22;4734;52.778;6.798;2022-10-15T01:48:29;12.60;99.90
9389;DHT22;4734;52.778;6.798;2022-10-15T01:51:16;12.60;99.90
9389;DHT22;4734;52.778;6.798;2022-10-15T01:54:04;12.60;99.90
9389;DHT22;4734;52.778;6.798;2022-10-15T01:56:51;12.60;99.90
9389;DHT22;4734;52.778;6.798;2022-10-15T01:59:39;12.50;99.90
9389;DHT22;4734;52.778;6.798;2022-10-15T02:02:25;12.60;99.90
9389;DHT22;4734;52.778;6.798;2022-10-15T02:05:15;12.60;99.90
9389;DHT22;4734;52.778;6.798;2022-10-15T02:08:06;12.60;99.90
9389;DHT22;4734;52.778;6.798;2022-10-15T02:10:59;12.50;99.90
9389;DHT22;4734;52.778;6.798;2022-10-15T02:13:50;12.50;99.90
9389;DHT22;4734;52.778;6.798;2022-10-15T02:16:40;12.60;99.90
9389;DHT22;4734;52.778;6.798;2022-10-15T02:19:33;12.50;99.90
9389;DHT22;4734;52.778;6.798;2022-10-15T02:22:24;12.50;99.90
9389;DHT22;4734;52.778;6.798;2022-10-15T02:25:14;12.50;99.90
9389;DHT22;4734;52.778;6.798;2022-10-15T02:28:01;12.60;99.90
9389;DHT22;4734;52.778;6.798;2022-10-15T02:30:49;12.50;99.90
9389;DHT22;4734;52.778;6.798;2022-10-15T02:33:37;12.50;99.90
9389;DHT22;4734;52.778;6.798;2022-10-15T02:36:24;12.50;99.90
9389;DHT22;4734;52.778;6.798;2022-10-15T02:39:13;12.50;99.90
9389;DHT22;4734;52.778;6.798;2022-10-15T02:42:01;12.50;99.90
9389;DHT22;4734;52.778;6.798;2022-10-15T02:44:47;12.50;99.90
9389;DHT22;4734;52.778;6.798;2022-10-15T02:47:33;12.50;99.90
9389;DHT22;4734;52.778;6.798;2022-10-15T02:50:18;12.50;99.90
9389;DHT22;4734;52.778;6.798;2022-10-15T02:53:04;12.50;99.90
9389;DHT22;4734;52.778;6.798;2022-10-15T02:55:51;12.50;99.90
9389;DHT22;4734;52.778;6.798;2022-10-15T02:58:36;12.50;99.90
9389;DHT22;4734;52.778;6.798;2022-10-15T03:01:22;12.40;99.90
9389;DHT22;4734;52.778;6.798;2022-10-15T03:04:07;12.50;99.90
9389;DHT22;4734;52.778;6.798;2022-10-15T03:06:53;12.40;99.90
9389;DHT22;4734;52.778;6.798;2022-10-15T03:09:38;12.50;99.90
9389;DHT22;4734;52.778;6.798;2022-10-15T03:12:25;12.50;99.90
9389;DHT22;4734;52.778;6.798;2022-10-15T03:15:11;12.40;99.90
9389;DHT22;4734;52.778;6.798;2022-10-15T03:17:56;12.40;99.90
9389;DHT22;4734;52.778;6.798;2022-10-15T03:20:42;12.40;99.90
9389;DHT22;4734;52.778;6.798;2022-10-15T03:23:27;12.40;99.90
9389;DHT22;4734;52.778;6.798;2022-10-15T03:26:13;12.40;99.90
9389;DHT22;4734;52.778;6.798;2022-10-15T03:29:00;12.40;99.90
9389;DHT22;4734;52.778;6.798;2022-10-15T03:31:45;12.40;99.90
9389;DHT22;4734;52.778;6.798;2022-10-15T03:34:31;12.40;99.90
9389;DHT22;4734;52.778;6.798;2022-10-15T03:37:17;12.40;99.90
9389;DHT22;4734;52.778;6.798;2022-10-15T03:40:02;12.40;99.90
9389;DHT22;4734;52.778;6.798;2022-10-15T03:42:49;12.40;99.90
9389;DHT22;4734;52.778;6.798;2022-10-15T03:45:36;12.40;99.90
9389;DHT22;4734;52.778;6.798;2022-10-15T03:48:21;12.40;99.90
9389;DHT22;4734;52.778;6.798;2022-10-15T03:51:07;12.40;99.90
9389;DHT22;4734;52.778;6.798;2022-10-15T03:53:52;12.40;99.90
9389;DHT22;4734;52.778;6.798;2022-10-15T03:56:38;12.40;99.90
9389;DHT22;4734;52.778;6.798;2022-10-15T03:59:23;12.40;99.90
9389;DHT22;4734;52.778;6.798;2022-10-15T04:02:10;12.40;99.90
9389;DHT22;4734;52.778;6.798;2022-10-15T04:04:56;12.40;99.90
9389;DHT22;4734;52.778;6.798;2022-10-15T04:07:42;12.40;99.90
9389;DHT22;4734;52.778;6.798;2022-10-15T04:10:27;12.40;99.90
9389;DHT22;4734;52.778;6.798;2022-10-15T04:13:13;12.40;99.90
9389;DHT22;4734;52.778;6.798;2022-10-15T04:15:59;12.40;99.90
9389;DHT22;4734;52.778;6.798;2022-10-15T04:18:46;12.40;99.90
9389;DHT22;4734;52.778;6.798;2022-10-15T04:21:31;12.40;99.90
9389;DHT22;4734;52.778;6.798;2022-10-15T04:24:17;12.40;99.90
9389;DHT22;4734;52.778;6.798;2022-10-15T04:27:02;12.40;99.90
9389;DHT22;4734;52.778;6.798;2022-10-15T04:29:48;12.40;99.90
9389;DHT22;4734;52.778;6.798;2022-10-15T04:32:34;12.40;99.90
9389;DHT22;4734;52.778;6.798;2022-10-15T04:35:20;12.40;99.90
9389;DHT22;4734;52.778;6.798;2022-10-15T04:38:06;12.40;99.90
9389;DHT22;4734;52.778;6.798;2022-10-15T04:40:58;12.30;99.90
9389;DHT22;4734;52.778;6.798;2022-10-15T04:43:44;12.30;99.90
9389;DHT22;4734;52.778;6.798;2022-10-15T04:46:30;12.30;99.90
9389;DHT22;4734;52.778;6.798;2022-10-15T04:49:15;12.30;99.90
9389;DHT22;4734;52.778;6.798;2022-10-15T04:52:02;12.30;99.90
9389;DHT22;4734;52.778;6.798;2022-10-15T04:54:47;12.30;99.90
9389;DHT22;4734;52.778;6.798;2022-10-15T04:57:33;12.30;99.90
9389;DHT22;4734;52.778;6.798;2022-10-15T05:00:19;12.20;99.90
9389;DHT22;4734;52.778;6.798;2022-10-15T05:03:05;12.20;99.90
9389;DHT22;4734;52.778;6.798;2022-10-15T05:05:50;12.20;99.90
9389;DHT22;4734;52.778;6.798;2022-10-15T05:08:37;12.20;99.90
9389;DHT22;4734;52.778;6.798;2022-10-15T05:11:26;12.20;99.90
9389;DHT22;4734;52.778;6.798;2022-10-15T05:14:11;12.20;99.90
9389;DHT22;4734;52.778;6.798;2022-10-15T05:16:57;12.10;99.90
9389;DHT22;4734;52.778;6.798;2022-10-15T05:19:43;12.10;99.90
9389;DHT22;4734;52.778;6.798;2022-10-15T05:22:28;12.10;99.90
9389;DHT22;4734;52.778;6.798;2022-10-15T05:25:16;12.10;99.90
9389;DHT22;4734;52.778;6.798;2022-10-15T05:28:02;12.10;99.90
9389;DHT22;4734;52.778;6.798;2022-10-15T05:30:47;12.00;99.90
9389;DHT22;4734;52.778;6.798;2022-10-15T05:33:34;12.00;99.90
9389;DHT22;4734;52.778;6.798;2022-10-15T05:36:21;12.00;99.90
9389;DHT22;4734;52.778;6.798;2022-10-15T05:39:07;12.00;99.90
9389;DHT22;4734;52.778;6.798;2022-10-15T05:41:56;12.00;99.90
9389;DHT22;4734;52.778;6.798;2022-10-15T05:44:42;12.00;99.90
9389;DHT22;4734;52.778;6.798;2022-10-15T05:47:27;12.00;99.90
9389;DHT22;4734;52.778;6.798;2022-10-15T05:50:13;12.00;99.90
9389;DHT22;4734;52.778;6.798;2022-10-15T05:52:59;12.00;99.90
9389;DHT22;4734;52.778;6.798;2022-10-15T05:55:44;11.90;99.90
9389;DHT22;4734;52.778;6.798;2022-10-15T05:58:32;12.00;99.90
9389;DHT22;4734;52.778;6.798;2022-10-15T06:01:18;11.90;99.90
9389;DHT22;4734;52.778;6.798;2022-10-15T06:04:04;11.90;99.90
9389;DHT22;4734;52.778;6.798;2022-10-15T06:06:49;12.00;99.90
9389;DHT22;4734;52.778;6.798;2022-10-15T06:09:35;12.00;99.90
9389;DHT22;4734;52.778;6.798;2022-10-15T06:12:20;11.90;99.90
9389;DHT22;4734;52.778;6.798;2022-10-15T06:15:08;12.00;99.90
9389;DHT22;4734;52.778;6.798;2022-10-15T06:17:53;11.90;99.90
9389;DHT22;4734;52.778;6.798;2022-10-15T06:20:39;11.90;99.90
9389;DHT22;4734;52.778;6.798;2022-10-15T06:23:25;11.90;99.90
9389;DHT22;4734;52.778;6.798;2022-10-15T06:26:10;12.00;99.90
9389;DHT22;4734;52.778;6.798;2022-10-15T06:28:56;11.90;99.90
9389;DHT22;4734;52.778;6.798;2022-10-15T06:31:43;11.90;99.90
9389;DHT22;4734;52.778;6.798;2022-10-15T06:34:29;12.00;99.90
9389;DHT22;4734;52.778;6.798;2022-10-15T06:37:14;12.00;99.90
9389;DHT22;4734;52.778;6.798;2022-10-15T06:40:00;12.00;99.90
9389;DHT22;4734;52.778;6.798;2022-10-15T06:42:45;12.00;99.90
9389;DHT22;4734;52.778;6.798;2022-10-15T06:45:31;12.00;99.90
9389;DHT22;4734;52.778;6.798;2022-10-15T06:48:18;12.00;99.90
9389;DHT22;4734;52.778;6.798;2022-10-15T06:51:04;12.00;99.90
9389;DHT22;4734;52.778;6.798;2022-10-15T06:53:49;12.00;99.90
9389;DHT22;4734;52.778;6.798;2022-10-15T06:56:35;12.00;99.90
9389;DHT22;4734;52.778;6.798;2022-10-15T06:59:21;12.00;99.90
9389;DHT22;4734;52.778;6.798;2022-10-15T07:02:08;12.00;99.90
9389;DHT22;4734;52.778;6.798;2022-10-15T07:04:55;12.00;99.90
9389;DHT22;4734;52.778;6.798;2022-10-15T07:07:41;12.00;99.90
9389;DHT22;4734;52.778;6.798;2022-10-15T07:10:28;12.00;99.90
9389;DHT22;4734;52.778;6.798;2022-10-15T07:13:13;12.10;99.90
9389;DHT22;4734;52.778;6.798;2022-10-15T07:16:02;12.10;99.90
9389;DHT22;4734;52.778;6.798;2022-10-15T07:18:48;12.10;99.90
9389;DHT22;4734;52.778;6.798;2022-10-15T07:21:35;12.10;99.90
9389;DHT22;4734;52.778;6.798;2022-10-15T07:24:21;12.10;99.90
9389;DHT22;4734;52.778;6.798;2022-10-15T07:27:07;12.20;99.90
9389;DHT22;4734;52.778;6.798;2022-10-15T07:29:52;12.20;99.90
9389;DHT22;4734;52.778;6.798;2022-10-15T07:32:38;12.20;99.90
9389;DHT22;4734;52.778;6.798;2022-10-15T07:35:24;12.20;99.90
9389;DHT22;4734;52.778;6.798;2022-10-15T07:38:11;12.30;99.90
9389;DHT22;4734;52.778;6.798;2022-10-15T07:40:57;12.30;99.90
9389;DHT22;4734;52.778;6.798;2022-10-15T07:43:43;12.30;99.90
9389;DHT22;4734;52.778;6.798;2022-10-15T07:46:29;12.30;99.90
9389;DHT22;4734;52.778;6.798;2022-10-15T07:49:14;12.40;99.90
9389;DHT22;4734;52.778;6.798;2022-10-15T07:52:03;12.40;99.90
9389;DHT22;4734;52.778;6.798;2022-10-15T07:54:50;12.40;99.90
9389;DHT22;4734;52.778;6.798;2022-10-15T07:57:36;12.50;99.90
9389;DHT22;4734;52.778;6.798;2022-10-15T08:00:21;12.40;99.90
9389;DHT22;4734;52.778;6.798;2022-10-15T08:03:07;12.50;99.90
9389;DHT22;4734;52.778;6.798;2022-10-15T08:05:52;12.50;99.90
9389;DHT22;4734;52.778;6.798;2022-10-15T08:08:38;12.60;99.90
9389;DHT22;4734;52.778;6.798;2022-10-15T08:11:25;12.60;99.90
9389;DHT22;4734;52.778;6.798;2022-10-15T08:14:11;12.60;99.90
9389;DHT22;4734;52.778;6.798;2022-10-15T08:16:57;12.70;99.90
9389;DHT22;4734;52.778;6.798;2022-10-15T08:19:42;12.70;99.90
9389;DHT22;4734;52.778;6.798;2022-10-15T08:22:28;12.70;99.90
9389;DHT22;4734;52.778;6.798;2022-10-15T08:25:13;12.80;99.90
9389;DHT22;4734;52.778;6.798;2022-10-15T08:28:00;12.80;99.90
9389;DHT22;4734;52.778;6.798;2022-10-15T08:30:46;12.80;99.90
9389;DHT22;4734;52.778;6.798;2022-10-15T08:33:31;12.90;99.90
9389;DHT22;4734;52.778;6.798;2022-10-15T08:36:17;12.90;99.90
9389;DHT22;4734;52.778;6.798;2022-10-15T08:39:03;12.90;99.90
9389;DHT22;4734;52.778;6.798;2022-10-15T08:41:52;13.00;99.90
9389;DHT22;4734;52.778;6.798;2022-10-15T08:44:41;13.00;99.90
9389;DHT22;4734;52.778;6.798;2022-10-15T08:47:31;13.00;99.90
9389;DHT22;4734;52.778;6.798;2022-10-15T08:50:25;13.10;99.90
9389;DHT22;4734;52.778;6.798;2022-10-15T08:53:12;13.10;99.90
9389;DHT22;4734;52.778;6.798;2022-10-15T08:56:02;13.20;99.90
9389;DHT22;4734;52.778;6.798;2022-10-15T08:58:55;13.20;99.90
9389;DHT22;4734;52.778;6.798;2022-10-15T09:01:48;13.30;99.90
9389;DHT22;4734;52.778;6.798;2022-10-15T09:04:39;13.30;99.90
9389;DHT22;4734;52.778;6.798;2022-10-15T09:07:32;13.40;99.90
9389;DHT22;4734;52.778;6.798;2022-10-15T09:10:29;13.40;99.90
9389;DHT22;4734;52.778;6.798;2022-10-15T09:13:20;13.40;99.90
9389;DHT22;4734;52.778;6.798;2022-10-15T09:16:13;13.50;99.90
9389;DHT22;4734;52.778;6.798;2022-10-15T09:19:03;13.50;99.90
9389;DHT22;4734;52.778;6.798;2022-10-15T09:21:51;13.50;99.90
9389;DHT22;4734;52.778;6.798;2022-10-15T09:24:37;13.50;99.90
9389;DHT22;4734;52.778;6.798;2022-10-15T09:27:27;13.50;99.90
9389;DHT22;4734;52.778;6.798;2022-10-15T09:30:27;13.60;99.90
9389;DHT22;4734;52.778;6.798;2022-10-15T09:33:26;13.60;99.90
9389;DHT22;4734;52.778;6.798;2022-10-15T09:36:25;13.60;99.90
9389;DHT22;4734;52.778;6.798;2022-10-15T09:39:30;13.60;99.90
9389;DHT22;4734;52.778;6.798;2022-10-15T09:42:25;13.60;99.90
9389;DHT22;4734;52.778;6.798;2022-10-15T09:45:13;13.60;99.90
9389;DHT22;4734;52.778;6.798;2022-10-15T09:47:59;13.60;99.90
9389;DHT22;4734;52.778;6.798;2022-10-15T09:50:53;13.60;99.90
9389;DHT22;4734;52.778;6.798;2022-10-15T09:53:46;13.60;99.90
9389;DHT22;4734;52.778;6.798;2022-10-15T09:56:37;13.60;99.90
9389;DHT22;4734;52.778;6.798;2022-10-15T09:59:24;13.60;99.90
9389;DHT22;4734;52.778;6.798;2022-10-15T10:02:18;13.60;99.90
9389;DHT22;4734;52.778;6.798;2022-10-15T10:05:27;13.60;99.90
9389;DHT22;4734;52.778;6.798;2022-10-15T10:08:19;13.60;99.90
9389;DHT22;4734;52.778;6.798;2022-10-15T10:11:09;13.60;99.90
9389;DHT22;4734;52.778;6.798;2022-10-15T10:13:57;13.60;99.90
9389;DHT22;4734;52.778;6.798;2022-10-15T10:17:05;13.60;99.90
9389;DHT22;4734;52.778;6.798;2022-10-15T10:20:12;13.70;99.90
9389;DHT22;4734;52.778;6.798;2022-10-15T10:23:00;13.70;99.90
9389;DHT22;4734;52.778;6.798;2022-10-15T10:25:46;13.70;99.90
9389;DHT22;4734;52.778;6.798;2022-10-15T10:28:38;13.70;99.90
9389;DHT22;4734;52.778;6.798;2022-10-15T10:31:27;13.70;99.90
9389;DHT22;4734;52.778;6.798;2022-10-15T10:34:16;13.70;99.90
9389;DHT22;4734;52.778;6.798;2022-10-15T10:37:03;13.80;99.90
9389;DHT22;4734;52.778;6.798;2022-10-15T10:39:55;13.80;99.90
9389;DHT22;4734;52.778;6.798;2022-10-15T10:42:42;13.90;99.90
9389;DHT22;4734;52.778;6.798;2022-10-15T10:45:29;13.80;99.90
9389;DHT22;4734;52.778;6.798;2022-10-15T10:48:18;13.90;99.90
9389;DHT22;4734;52.778;6.798;2022-10-15T10:51:08;13.90;99.90
9389;DHT22;4734;52.778;6.798;2022-10-15T10:53:56;14.00;99.90
9389;DHT22;4734;52.778;6.798;2022-10-15T10:56:43;14.00;99.90
9389;DHT22;4734;52.778;6.798;2022-10-15T10:59:33;14.00;99.90
9389;DHT22;4734;52.778;6.798;2022-10-15T11:02:21;14.10;99.90
9389;DHT22;4734;52.778;6.798;2022-10-15T11:05:07;14.10;99.90
9389;DHT22;4734;52.778;6.798;2022-10-15T11:07:58;14.20;99.90
9389;DHT22;4734;52.778;6.798;2022-10-15T11:10:49;14.30;99.90
9389;DHT22;4734;52.778;6.798;2022-10-15T11:13:46;14.20;99.90
9389;DHT22;4734;52.778;6.798;2022-10-15T11:16:40;14.30;99.90
9389;DHT22;4734;52.778;6.798;2022-10-15T11:19:36;14.40;99.90
9389;DHT22;4734;52.778;6.798;2022-10-15T11:22:34;14.40;99.90
9389;DHT22;4734;52.778;6.798;2022-10-15T11:25:31;14.40;99.90
9389;DHT22;4734;52.778;6.798;2022-10-15T11:28:26;14.50;99.90
9389;DHT22;4734;52.778;6.798;2022-10-15T11:31:21;14.50;99.90
9389;DHT22;4734;52.778;6.798;2022-10-15T11:34:24;14.50;99.90
9389;DHT22;4734;52.778;6.798;2022-10-15T11:37:22;14.60;99.90
9389;DHT22;4734;52.778;6.798;2022-10-15T11:40:19;14.60;99.90
9389;DHT22;4734;52.778;6.798;2022-10-15T11:43:13;14.70;99.90
9389;DHT22;4734;52.778;6.798;2022-10-15T11:46:06;14.70;99.90
9389;DHT22;4734;52.778;6.798;2022-10-15T11:49:09;14.80;99.90
9389;DHT22;4734;52.778;6.798;2022-10-15T11:52:20;14.90;99.90
9389;DHT22;4734;52.778;6.798;2022-10-15T11:55:11;15.00;99.90
9389;DHT22;4734;52.778;6.798;2022-10-15T11:58:00;15.00;99.90
9389;DHT22;4734;52.778;6.798;2022-10-15T12:00:50;15.10;99.90
9389;DHT22;4734;52.778;6.798;2022-10-15T12:03:40;15.10;99.90
9389;DHT22;4734;52.778;6.798;2022-10-15T12:06:29;15.20;99.90
9389;DHT22;4734;52.778;6.798;2022-10-15T12:09:24;15.20;99.90
9389;DHT22;4734;52.778;6.798;2022-10-15T12:12:17;15.30;99.90
9389;DHT22;4734;52.778;6.798;2022-10-15T12:15:14;15.30;99.90
9389;DHT22;4734;52.778;6.798;2022-10-15T12:18:07;15.40;99.90
9389;DHT22;4734;52.778;6.798;2022-10-15T12:20:57;15.40;99.90
9389;DHT22;4734;52.778;6.798;2022-10-15T12:23:43;15.40;99.90
9389;DHT22;4734;52.778;6.798;2022-10-15T12:26:31;15.40;99.90
9389;DHT22;4734;52.778;6.798;2022-10-15T12:29:20;15.50;99.90
9389;DHT22;4734;52.778;6.798;2022-10-15T12:32:21;15.50;99.90
9389;DHT22;4734;52.778;6.798;2022-10-15T12:35:19;15.60;99.90
9389;DHT22;4734;52.778;6.798;2022-10-15T12:38:17;15.60;99.90
9389;DHT22;4734;52.778;6.798;2022-10-15T12:41:06;15.60;99.90
9389;DHT22;4734;52.778;6.798;2022-10-15T12:44:05;15.60;99.90
9389;DHT22;4734;52.778;6.798;2022-10-15T12:46:51;15.60;99.90
9389;DHT22;4734;52.778;6.798;2022-10-15T12:49:58;15.60;99.90
9389;DHT22;4734;52.778;6.798;2022-10-15T12:53:02;15.70;99.90
9389;DHT22;4734;52.778;6.798;2022-10-15T12:56:11;15.70;99.90
9389;DHT22;4734;52.778;6.798;2022-10-15T12:58:59;15.90;99.90
9389;DHT22;4734;52.778;6.798;2022-10-15T13:01:49;16.00;99.90
9389;DHT22;4734;52.778;6.798;2022-10-15T13:04:37;16.10;99.90
9389;DHT22;4734;52.778;6.798;2022-10-15T13:07:23;16.10;99.90
9389;DHT22;4734;52.778;6.798;2022-10-15T13:10:18;16.00;99.90
9389;DHT22;4734;52.778;6.798;2022-10-15T13:13:14;15.90;99.90
9389;DHT22;4734;52.778;6.798;2022-10-15T13:16:06;15.90;99.90
9389;DHT22;4734;52.778;6.798;2022-10-15T13:18:54;15.90;99.90
9389;DHT22;4734;52.778;6.798;2022-10-15T13:21:48;15.90;99.90
9389;DHT22;4734;52.778;6.798;2022-10-15T13:24:42;15.90;99.90
9389;DHT22;4734;52.778;6.798;2022-10-15T13:27:30;15.80;99.90
9389;DHT22;4734;52.778;6.798;2022-10-15T13:30:16;15.80;99.90
9389;DHT22;4734;52.778;6.798;2022-10-15T13:33:03;15.80;99.90
9389;DHT22;4734;52.778;6.798;2022-10-15T13:35:49;15.80;99.90
9389;DHT22;4734;52.778;6.798;2022-10-15T13:38:36;15.80;99.90
9389;DHT22;4734;52.778;6.798;2022-10-15T13:41:24;15.80;99.90
9389;DHT22;4734;52.778;6.798;2022-10-15T13:44:19;15.80;99.90
9389;DHT22;4734;52.778;6.798;2022-10-15T13:47:22;15.80;99.90
9389;DHT22;4734;52.778;6.798;2022-10-15T13:50:28;15.80;99.90
9389;DHT22;4734;52.778;6.798;2022-10-15T13:53:20;15.80;99.90
9389;DHT22;4734;52.778;6.798;2022-10-15T13:56:18;15.80;99.90
9389;DHT22;4734;52.778;6.798;2022-10-15T13:59:15;15.80;99.90
9389;DHT22;4734;52.778;6.798;2022-10-15T14:02:01;15.80;99.90
9389;DHT22;4734;52.778;6.798;2022-10-15T14:04:47;15.80;99.90
9389;DHT22;4734;52.778;6.798;2022-10-15T14:07:34;15.80;99.90
9389;DHT22;4734;52.778;6.798;2022-10-15T14:10:20;15.80;99.90
9389;DHT22;4734;52.778;6.798;2022-10-15T14:13:07;15.80;99.90
9389;DHT22;4734;52.778;6.798;2022-10-15T14:16:12;15.80;99.90
9389;DHT22;4734;52.778;6.798;2022-10-15T14:19:09;15.80;99.90
9389;DHT22;4734;52.778;6.798;2022-10-15T14:21:56;15.90;99.90
9389;DHT22;4734;52.778;6.798;2022-10-15T14:24:51;15.90;99.90
9389;DHT22;4734;52.778;6.798;2022-10-15T14:27:37;15.90;99.90
9389;DHT22;4734;52.778;6.798;2022-10-15T14:30:29;15.90;99.90
9389;DHT22;4734;52.778;6.798;2022-10-15T14:33:30;15.90;99.90
9389;DHT22;4734;52.778;6.798;2022-10-15T14:36:26;15.90;99.90
9389;DHT22;4734;52.778;6.798;2022-10-15T14:39:27;15.90;99.90
9389;DHT22;4734;52.778;6.798;2022-10-15T14:42:25;15.90;99.90
9389;DHT22;4734;52.778;6.798;2022-10-15T14:45:13;15.90;99.90
9389;DHT22;4734;52.778;6.798;2022-10-15T14:48:08;15.90;99.90
9389;DHT22;4734;52.778;6.798;2022-10-15T14:50:57;15.90;99.90
9389;DHT22;4734;52.778;6.798;2022-10-15T14:53:44;15.90;99.90
9389;DHT22;4734;52.778;6.798;2022-10-15T14:56:32;15.90;99.90
9389;DHT22;4734;52.778;6.798;2022-10-15T14:59:29;15.90;99.90
9389;DHT22;4734;52.778;6.798;2022-10-15T15:02:15;16.00;99.90
9389;DHT22;4734;52.778;6.798;2022-10-15T15:05:07;15.90;99.90
9389;DHT22;4734;52.778;6.798;2022-10-15T15:07:54;16.00;99.90
9389;DHT22;4734;52.778;6.798;2022-10-15T15:10:41;16.00;99.90
9389;DHT22;4734;52.778;6.798;2022-10-15T15:13:28;16.00;99.90
9389;DHT22;4734;52.778;6.798;2022-10-15T15:16:17;16.00;99.90
9389;DHT22;4734;52.778;6.798;2022-10-15T15:19:06;16.00;99.90
9389;DHT22;4734;52.778;6.798;2022-10-15T15:21:52;16.00;99.90
9389;DHT22;4734;52.778;6.798;2022-10-15T15:24:38;16.00;99.90
9389;DHT22;4734;52.778;6.798;2022-10-15T15:27:25;16.00;99.90
9389;DHT22;4734;52.778;6.798;2022-10-15T15:30:15;16.00;99.90
9389;DHT22;4734;52.778;6.798;2022-10-15T15:33:02;16.00;99.90
9389;DHT22;4734;52.778;6.798;2022-10-15T15:35:49;16.00;99.90
9389;DHT22;4734;52.778;6.798;2022-10-15T15:38:35;16.00;99.90
9389;DHT22;4734;52.778;6.798;2022-10-15T15:41:21;16.00;99.90
9389;DHT22;4734;52.778;6.798;2022-10-15T15:44:10;16.00;99.90
9389;DHT22;4734;52.778;6.798;2022-10-15T15:46:57;16.00;99.90
9389;DHT22;4734;52.778;6.798;2022-10-15T15:49:44;16.00;99.90
9389;DHT22;4734;52.778;6.798;2022-10-15T15:52:29;16.00;99.90
9389;DHT22;4734;52.778;6.798;2022-10-15T15:55:15;16.00;99.90
9389;DHT22;4734;52.778;6.798;2022-10-15T15:58:01;16.00;99.90
9389;DHT22;4734;52.778;6.798;2022-10-15T16:00:46;16.00;99.90
9389;DHT22;4734;52.778;6.798;2022-10-15T16:03:32;16.00;99.90
9389;DHT22;4734;52.778;6.798;2022-10-15T16:06:19;16.00;99.90
9389;DHT22;4734;52.778;6.798;2022-10-15T16:09:04;16.00;99.90
9389;DHT22;4734;52.778;6.798;2022-10-15T16:11:50;16.00;99.90
9389;DHT22;4734;52.778;6.798;2022-10-15T16:14:36;16.00;99.90
9389;DHT22;4734;52.778;6.798;2022-10-15T16:17:21;15.90;99.90
9389;DHT22;4734;52.778;6.798;2022-10-15T16:20:09;15.90;99.90
9389;DHT22;4734;52.778;6.798;2022-10-15T16:22:56;15.90;99.90
9389;DHT22;4734;52.778;6.798;2022-10-15T16:25:41;15.90;99.90
9389;DHT22;4734;52.778;6.798;2022-10-15T16:28:27;15.90;99.90
9389;DHT22;4734;52.778;6.798;2022-10-15T16:31:14;15.90;99.90
9389;DHT22;4734;52.778;6.798;2022-10-15T16:34:00;15.90;99.90
9389;DHT22;4734;52.778;6.798;2022-10-15T16:36:46;15.80;99.90
9389;DHT22;4734;52.778;6.798;2022-10-15T16:39:33;15.80;99.90
9389;DHT22;4734;52.778;6.798;2022-10-15T16:42:18;15.80;99.90
9389;DHT22;4734;52.778;6.798;2022-10-15T16:45:04;15.80;99.90
9389;DHT22;4734;52.778;6.798;2022-10-15T16:47:50;15.80;99.90
9389;DHT22;4734;52.778;6.798;2022-10-15T16:50:35;15.70;99.90
9389;DHT22;4734;52.778;6.798;2022-10-15T16:53:21;15.70;99.90
9389;DHT22;4734;52.778;6.798;2022-10-15T16:56:11;15.60;99.90
9389;DHT22;4734;52.778;6.798;2022-10-15T16:58:57;15.60;99.90
9389;DHT22;4734;52.778;6.798;2022-10-15T17:01:42;15.60;99.90
9389;DHT22;4734;52.778;6.798;2022-10-15T17:04:28;15.60;99.90
9389;DHT22;4734;52.778;6.798;2022-10-15T17:07:14;15.60;99.90
9389;DHT22;4734;52.778;6.798;2022-10-15T17:09:59;15.50;99.90
9389;DHT22;4734;52.778;6.798;2022-10-15T17:12:46;15.50;99.90
9389;DHT22;4734;52.778;6.798;2022-10-15T17:15:31;15.50;99.90
9389;DHT22;4734;52.778;6.798;2022-10-15T17:18:17;15.40;99.90
9389;DHT22;4734;52.778;6.798;2022-10-15T17:21:03;15.40;99.90
9389;DHT22;4734;52.778;6.798;2022-10-15T17:23:50;15.40;99.90
9389;DHT22;4734;52.778;6.798;2022-10-15T17:26:37;15.30;99.90
9389;DHT22;4734;52.778;6.798;2022-10-15T17:29:25;15.30;99.90
9389;DHT22;4734;52.778;6.798;2022-10-15T17:32:10;15.30;99.90
9389;DHT22;4734;52.778;6.798;2022-10-15T17:34:56;15.20;99.90
9389;DHT22;4734;52.778;6.798;2022-10-15T17:37:41;15.20;99.90
9389;DHT22;4734;52.778;6.798;2022-10-15T17:40:27;15.20;99.90
9389;DHT22;4734;52.778;6.798;2022-10-15T17:43:13;15.10;99.90
9389;DHT22;4734;52.778;6.798;2022-10-15T17:46:01;15.10;99.90
9389;DHT22;4734;52.778;6.798;2022-10-15T17:48:47;15.00;99.90
9389;DHT22;4734;52.778;6.798;2022-10-15T17:51:32;15.00;99.90
9389;DHT22;4734;52.778;6.798;2022-10-15T17:54:18;15.00;99.90
9389;DHT22;4734;52.778;6.798;2022-10-15T17:57:04;14.90;99.90
9389;DHT22;4734;52.778;6.798;2022-10-15T17:59:50;14.90;99.90
9389;DHT22;4734;52.778;6.798;2022-10-15T18:02:37;14.80;99.90
9389;DHT22;4734;52.778;6.798;2022-10-15T18:05:22;14.80;99.90
9389;DHT22;4734;52.778;6.798;2022-10-15T18:08:07;14.70;99.90
9389;DHT22;4734;52.778;6.798;2022-10-15T18:10:53;14.70;99.90
9389;DHT22;4734;52.778;6.798;2022-10-15T18:13:39;14.70;99.90
9389;DHT22;4734;52.778;6.798;2022-10-15T18:16:25;14.60;99.90
9389;DHT22;4734;52.778;6.798;2022-10-15T18:19:12;14.60;99.90
9389;DHT22;4734;52.778;6.798;2022-10-15T18:21:57;14.50;99.90